sensor_id;sensor_type;location;lat;lon;timestamp;P1;durP1;ratioP1;P2;durP2;ratioP2
18789;SDS011;9523;42.650;23.386;2023-05-18T00:02:16;2.53;;;1.60;;
18789;SDS011;9523;42.650;23.386;2023-05-18T00:04:45;1.63;;;1.53;;
18789;SDS011;9523;42.650;23.386;2023-05-18T00:07:15;1.80;;;1.03;;
18789;SDS011;9523;42.650;23.386;2023-05-18T00:09:42;3.00;;;1.30;;
18789;SDS011;9523;42.650;23.386;2023-05-18T00:12:09;5.07;;;1.40;;
18789;SDS011;9523;42.650;23.386;2023-05-18T00:14:37;1.60;;;1.30;;
18789;SDS011;9523;42.650;23.386;2023-05-18T00:17:08;1.70;;;1.20;;
18789;SDS011;9523;42.650;23.386;2023-05-18T00:19:38;2.70;;;1.20;;
18789;SDS011;9523;42.650;23.386;2023-05-18T00:22:06;3.40;;;1.57;;
18789;SDS011;9523;42.650;23.386;2023-05-18T00:24:33;2.73;;;1.80;;
18789;SDS011;9523;42.650;23.386;2023-05-18T00:27:03;1.53;;;1.33;;
18789;SDS011;9523;42.650;23.386;2023-05-18T00:29:33;3.43;;;1.43;;
18789;SDS011;9523;42.650;23.386;2023-05-18T00:32:01;4.00;;;1.50;;
18789;SDS011;9523;42.650;23.386;2023-05-18T00:34:28;1.43;;;1.07;;
18789;SDS011;9523;42.650;23.386;2023-05-18T00:36:55;2.23;;;1.40;;
18789;SDS011;9523;42.650;23.386;2023-05-18T00:39:23;1.90;;;1.30;;
18789;SDS011;9523;42.650;23.386;2023-05-18T00:41:50;1.83;;;1.40;;
18789;SDS011;9523;42.650;23.386;2023-05-18T00:44:21;2.93;;;1.60;;
18789;SDS011;9523;42.650;23.386;2023-05-18T00:46:50;2.50;;;1.43;;
18789;SDS011;9523;42.650;23.386;2023-05-18T00:49:19;1.77;;;1.07;;
18789;SDS011;9523;42.650;23.386;2023-05-18T00:51:46;1.67;;;1.03;;
18789;SDS011;9523;42.650;23.386;2023-05-18T00:54:15;2.17;;;1.47;;
18789;SDS011;9523;42.650;23.386;2023-05-18T00:56:43;3.70;;;1.00;;
18789;SDS011;9523;42.650;23.386;2023-05-18T00:59:11;1.53;;;0.93;;
18789;SDS011;9523;42.650;23.386;2023-05-18T01:01:39;2.03;;;0.93;;
18789;SDS011;9523;42.650;23.386;2023-05-18T01:04:10;3.07;;;0.90;;
18789;SDS011;9523;42.650;23.386;2023-05-18T01:06:39;3.00;;;1.20;;
18789;SDS011;9523;42.650;23.386;2023-05-18T01:09:08;1.27;;;1.00;;
18789;SDS011;9523;42.650;23.386;2023-05-18T01:11:43;1.83;;;0.90;;
18789;SDS011;9523;42.650;23.386;2023-05-18T01:14:23;1.07;;;0.83;;
18789;SDS011;9523;42.650;23.386;2023-05-18T01:16:54;1.93;;;1.00;;
18789;SDS011;9523;42.650;23.386;2023-05-18T01:22:41;1.57;;;1.17;;
18789;SDS011;9523;42.650;23.386;2023-05-18T01:25:32;2.33;;;0.93;;
18789;SDS011;9523;42.650;23.386;2023-05-18T01:28:07;4.37;;;2.33;;
18789;SDS011;9523;42.650;23.386;2023-05-18T01:30:42;2.93;;;1.27;;
18789;SDS011;9523;42.650;23.386;2023-05-18T01:33:10;1.80;;;1.20;;
18789;SDS011;9523;42.650;23.386;2023-05-18T01:35:38;1.90;;;1.37;;
18789;SDS011;9523;42.650;23.386;2023-05-18T01:38:12;2.13;;;1.70;;
18789;SDS011;9523;42.650;23.386;2023-05-18T01:40:42;1.70;;;1.30;;
18789;SDS011;9523;42.650;23.386;2023-05-18T01:43:15;2.20;;;1.20;;
18789;SDS011;9523;42.650;23.386;2023-05-18T01:45:46;1.60;;;1.37;;
18789;SDS011;9523;42.650;23.386;2023-05-18T01:48:17;1.77;;;1.33;;
18789;SDS011;9523;42.650;23.386;2023-05-18T01:50:48;3.77;;;1.27;;
18789;SDS011;9523;42.650;23.386;2023-05-18T01:53:24;2.67;;;1.20;;
18789;SDS011;9523;42.650;23.386;2023-05-18T01:55:55;2.93;;;1.10;;
18789;SDS011;9523;42.650;23.386;2023-05-18T01:58:26;1.80;;;1.20;;
18789;SDS011;9523;42.650;23.386;2023-05-18T02:00:53;1.33;;;1.03;;
18789;SDS011;9523;42.650;23.386;2023-05-18T02:03:20;1.87;;;1.17;;
18789;SDS011;9523;42.650;23.386;2023-05-18T02:05:48;1.50;;;1.30;;
18789;SDS011;9523;42.650;23.386;2023-05-18T02:08:15;3.50;;;1.60;;
18789;SDS011;9523;42.650;23.386;2023-05-18T02:10:41;2.73;;;1.60;;
18789;SDS011;9523;42.650;23.386;2023-05-18T02:13:08;2.03;;;1.23;;
18789;SDS011;9523;42.650;23.386;2023-05-18T02:15:36;1.60;;;1.30;;
18789;SDS011;9523;42.650;23.386;2023-05-18T02:18:03;2.73;;;1.50;;
18789;SDS011;9523;42.650;23.386;2023-05-18T02:20:32;2.20;;;1.60;;
18789;SDS011;9523;42.650;23.386;2023-05-18T02:22:59;1.60;;;1.40;;
18789;SDS011;9523;42.650;23.386;2023-05-18T02:25:26;1.83;;;1.40;;
18789;SDS011;9523;42.650;23.386;2023-05-18T02:27:53;1.37;;;1.10;;
18789;SDS011;9523;42.650;23.386;2023-05-18T02:30:21;2.37;;;1.10;;
18789;SDS011;9523;42.650;23.386;2023-05-18T02:32:49;3.40;;;1.97;;
18789;SDS011;9523;42.650;23.386;2023-05-18T02:35:16;1.80;;;1.30;;
18789;SDS011;9523;42.650;23.386;2023-05-18T02:37:43;1.53;;;1.10;;
18789;SDS011;9523;42.650;23.386;2023-05-18T02:40:11;1.33;;;1.20;;
18789;SDS011;9523;42.650;23.386;2023-05-18T02:42:40;1.10;;;1.00;;
18789;SDS011;9523;42.650;23.386;2023-05-18T02:45:07;1.70;;;1.20;;
18789;SDS011;9523;42.650;23.386;2023-05-18T02:47:35;1.40;;;1.10;;
18789;SDS011;9523;42.650;23.386;2023-05-18T02:50:03;1.17;;;1.00;;
18789;SDS011;9523;42.650;23.386;2023-05-18T02:52:31;2.97;;;1.10;;
18789;SDS011;9523;42.650;23.386;2023-05-18T02:54:58;2.20;;;0.90;;
18789;SDS011;9523;42.650;23.386;2023-05-18T02:57:24;2.93;;;1.50;;
18789;SDS011;9523;42.650;23.386;2023-05-18T02:59:51;4.80;;;2.70;;
18789;SDS011;9523;42.650;23.386;2023-05-18T03:02:18;2.17;;;1.20;;
18789;SDS011;9523;42.650;23.386;2023-05-18T03:04:47;2.07;;;1.10;;
18789;SDS011;9523;42.650;23.386;2023-05-18T03:07:22;3.57;;;1.30;;
18789;SDS011;9523;42.650;23.386;2023-05-18T03:09:51;1.70;;;1.20;;
18789;SDS011;9523;42.650;23.386;2023-05-18T03:12:18;1.00;;;0.90;;
18789;SDS011;9523;42.650;23.386;2023-05-18T03:14:48;2.87;;;1.00;;
18789;SDS011;9523;42.650;23.386;2023-05-18T03:17:18;1.60;;;0.97;;
18789;SDS011;9523;42.650;23.386;2023-05-18T03:19:48;3.03;;;1.30;;
18789;SDS011;9523;42.650;23.386;2023-05-18T03:22:16;5.07;;;2.50;;
18789;SDS011;9523;42.650;23.386;2023-05-18T03:24:45;2.47;;;1.10;;
18789;SDS011;9523;42.650;23.386;2023-05-18T03:27:15;1.77;;;1.50;;
18789;SDS011;9523;42.650;23.386;2023-05-18T03:29:49;2.07;;;1.80;;
18789;SDS011;9523;42.650;23.386;2023-05-18T03:32:19;4.37;;;1.57;;
18789;SDS011;9523;42.650;23.386;2023-05-18T03:34:46;4.83;;;1.80;;
18789;SDS011;9523;42.650;23.386;2023-05-18T03:37:13;2.80;;;1.93;;
18789;SDS011;9523;42.650;23.386;2023-05-18T03:39:41;2.83;;;2.10;;
18789;SDS011;9523;42.650;23.386;2023-05-18T03:42:09;3.23;;;2.27;;
18789;SDS011;9523;42.650;23.386;2023-05-18T03:44:36;5.77;;;2.80;;
18789;SDS011;9523;42.650;23.386;2023-05-18T03:47:05;3.43;;;2.73;;
18789;SDS011;9523;42.650;23.386;2023-05-18T03:49:35;3.77;;;2.73;;
18789;SDS011;9523;42.650;23.386;2023-05-18T03:52:02;6.80;;;3.33;;
18789;SDS011;9523;42.650;23.386;2023-05-18T03:54:30;4.33;;;3.40;;
18789;SDS011;9523;42.650;23.386;2023-05-18T03:56:58;5.33;;;3.57;;
18789;SDS011;9523;42.650;23.386;2023-05-18T03:59:30;5.47;;;3.83;;
18789;SDS011;9523;42.650;23.386;2023-05-18T04:01:57;4.40;;;3.60;;
18789;SDS011;9523;42.650;23.386;2023-05-18T04:04:25;4.10;;;3.60;;
18789;SDS011;9523;42.650;23.386;2023-05-18T04:06:53;4.47;;;3.30;;
18789;SDS011;9523;42.650;23.386;2023-05-18T04:09:19;3.87;;;3.47;;
18789;SDS011;9523;42.650;23.386;2023-05-18T04:11:47;5.13;;;3.87;;
18789;SDS011;9523;42.650;23.386;2023-05-18T04:14:14;4.43;;;3.67;;
18789;SDS011;9523;42.650;23.386;2023-05-18T04:16:43;6.43;;;4.53;;
18789;SDS011;9523;42.650;23.386;2023-05-18T04:19:10;9.07;;;4.80;;
18789;SDS011;9523;42.650;23.386;2023-05-18T04:21:40;5.30;;;3.60;;
18789;SDS011;9523;42.650;23.386;2023-05-18T04:24:08;5.87;;;4.30;;
18789;SDS011;9523;42.650;23.386;2023-05-18T04:26:38;6.10;;;4.70;;
18789;SDS011;9523;42.650;23.386;2023-05-18T04:29:07;5.53;;;4.57;;
18789;SDS011;9523;42.650;23.386;2023-05-18T04:31:37;7.30;;;5.17;;
18789;SDS011;9523;42.650;23.386;2023-05-18T04:34:08;6.57;;;5.70;;
18789;SDS011;9523;42.650;23.386;2023-05-18T04:36:37;9.37;;;5.60;;
18789;SDS011;9523;42.650;23.386;2023-05-18T04:39:06;6.57;;;5.60;;
18789;SDS011;9523;42.650;23.386;2023-05-18T04:41:34;17.17;;;10.40;;
18789;SDS011;9523;42.650;23.386;2023-05-18T04:44:03;7.10;;;6.10;;
18789;SDS011;9523;42.650;23.386;2023-05-18T04:46:30;7.27;;;5.37;;
18789;SDS011;9523;42.650;23.386;2023-05-18T04:48:58;10.90;;;6.57;;
18789;SDS011;9523;42.650;23.386;2023-05-18T04:51:29;7.23;;;5.73;;
18789;SDS011;9523;42.650;23.386;2023-05-18T04:53:58;9.63;;;5.90;;
18789;SDS011;9523;42.650;23.386;2023-05-18T04:56:27;9.17;;;6.33;;
18789;SDS011;9523;42.650;23.386;2023-05-18T04:58:55;8.17;;;6.77;;
18789;SDS011;9523;42.650;23.386;2023-05-18T05:01:31;7.80;;;6.57;;
18789;SDS011;9523;42.650;23.386;2023-05-18T05:03:58;7.70;;;6.37;;
18789;SDS011;9523;42.650;23.386;2023-05-18T05:06:25;6.27;;;5.60;;
18789;SDS011;9523;42.650;23.386;2023-05-18T05:08:57;7.17;;;6.20;;
18789;SDS011;9523;42.650;23.386;2023-05-18T05:11:24;6.77;;;6.07;;
18789;SDS011;9523;42.650;23.386;2023-05-18T05:13:51;8.50;;;6.20;;
18789;SDS011;9523;42.650;23.386;2023-05-18T05:16:18;9.23;;;6.40;;
18789;SDS011;9523;42.650;23.386;2023-05-18T05:18:46;7.20;;;6.03;;
18789;SDS011;9523;42.650;23.386;2023-05-18T05:21:13;10.73;;;7.40;;
18789;SDS011;9523;42.650;23.386;2023-05-18T05:23:39;9.90;;;6.83;;
18789;SDS011;9523;42.650;23.386;2023-05-18T05:26:11;8.77;;;6.37;;
18789;SDS011;9523;42.650;23.386;2023-05-18T05:28:38;9.67;;;6.23;;
18789;SDS011;9523;42.650;23.386;2023-05-18T05:31:05;8.23;;;6.40;;
18789;SDS011;9523;42.650;23.386;2023-05-18T05:33:32;7.00;;;6.20;;
18789;SDS011;9523;42.650;23.386;2023-05-18T05:35:59;7.80;;;6.60;;
18789;SDS011;9523;42.650;23.386;2023-05-18T05:38:25;8.23;;;6.80;;
18789;SDS011;9523;42.650;23.386;2023-05-18T05:40:53;8.30;;;6.33;;
18789;SDS011;9523;42.650;23.386;2023-05-18T05:43:21;8.60;;;7.00;;
18789;SDS011;9523;42.650;23.386;2023-05-18T05:45:48;7.63;;;6.70;;
18789;SDS011;9523;42.650;23.386;2023-05-18T05:48:15;8.27;;;6.57;;
18789;SDS011;9523;42.650;23.386;2023-05-18T05:50:46;7.60;;;6.47;;
18789;SDS011;9523;42.650;23.386;2023-05-18T05:53:13;10.10;;;7.00;;
18789;SDS011;9523;42.650;23.386;2023-05-18T05:55:41;8.97;;;7.07;;
18789;SDS011;9523;42.650;23.386;2023-05-18T05:58:08;12.20;;;8.40;;
18789;SDS011;9523;42.650;23.386;2023-05-18T06:00:40;12.47;;;7.97;;
18789;SDS011;9523;42.650;23.386;2023-05-18T06:03:07;11.37;;;7.50;;
18789;SDS011;9523;42.650;23.386;2023-05-18T06:05:36;8.30;;;7.10;;
18789;SDS011;9523;42.650;23.386;2023-05-18T06:08:05;11.00;;;8.00;;
18789;SDS011;9523;42.650;23.386;2023-05-18T06:10:32;10.50;;;7.83;;
18789;SDS011;9523;42.650;23.386;2023-05-18T06:12:59;10.37;;;8.50;;
18789;SDS011;9523;42.650;23.386;2023-05-18T06:15:26;13.00;;;7.83;;
18789;SDS011;9523;42.650;23.386;2023-05-18T06:17:55;11.03;;;8.20;;
18789;SDS011;9523;42.650;23.386;2023-05-18T06:20:24;9.07;;;7.90;;
18789;SDS011;9523;42.650;23.386;2023-05-18T06:22:52;10.10;;;8.70;;
18789;SDS011;9523;42.650;23.386;2023-05-18T06:25:22;13.47;;;8.70;;
18789;SDS011;9523;42.650;23.386;2023-05-18T06:27:49;11.73;;;8.80;;
18789;SDS011;9523;42.650;23.386;2023-05-18T06:30:18;10.90;;;8.07;;
18789;SDS011;9523;42.650;23.386;2023-05-18T06:32:45;10.43;;;8.10;;
18789;SDS011;9523;42.650;23.386;2023-05-18T06:35:14;9.47;;;7.17;;
18789;SDS011;9523;42.650;23.386;2023-05-18T06:37:41;9.23;;;6.73;;
18789;SDS011;9523;42.650;23.386;2023-05-18T06:40:09;7.10;;;5.73;;
18789;SDS011;9523;42.650;23.386;2023-05-18T06:42:38;9.00;;;6.07;;
18789;SDS011;9523;42.650;23.386;2023-05-18T06:45:08;9.17;;;6.37;;
18789;SDS011;9523;42.650;23.386;2023-05-18T06:47:35;10.27;;;6.90;;
18789;SDS011;9523;42.650;23.386;2023-05-18T06:50:03;9.97;;;6.03;;
18789;SDS011;9523;42.650;23.386;2023-05-18T06:52:32;8.97;;;6.47;;
18789;SDS011;9523;42.650;23.386;2023-05-18T06:54:59;8.50;;;6.67;;
18789;SDS011;9523;42.650;23.386;2023-05-18T06:57:26;10.00;;;6.80;;
18789;SDS011;9523;42.650;23.386;2023-05-18T06:59:53;8.30;;;6.27;;
18789;SDS011;9523;42.650;23.386;2023-05-18T07:02:20;9.63;;;6.30;;
18789;SDS011;9523;42.650;23.386;2023-05-18T07:04:47;7.67;;;6.87;;
18789;SDS011;9523;42.650;23.386;2023-05-18T07:07:14;12.97;;;7.43;;
18789;SDS011;9523;42.650;23.386;2023-05-18T07:09:43;10.53;;;5.90;;
18789;SDS011;9523;42.650;23.386;2023-05-18T07:12:13;10.13;;;7.20;;
18789;SDS011;9523;42.650;23.386;2023-05-18T07:14:40;12.80;;;7.70;;
18789;SDS011;9523;42.650;23.386;2023-05-18T07:17:07;9.67;;;7.80;;
18789;SDS011;9523;42.650;23.386;2023-05-18T07:19:36;10.70;;;7.63;;
18789;SDS011;9523;42.650;23.386;2023-05-18T07:22:04;11.03;;;7.13;;
18789;SDS011;9523;42.650;23.386;2023-05-18T07:24:31;11.00;;;7.23;;
18789;SDS011;9523;42.650;23.386;2023-05-18T07:27:00;10.47;;;7.33;;
18789;SDS011;9523;42.650;23.386;2023-05-18T07:29:27;11.93;;;7.93;;
18789;SDS011;9523;42.650;23.386;2023-05-18T07:31:59;13.77;;;9.03;;
18789;SDS011;9523;42.650;23.386;2023-05-18T07:34:26;9.73;;;7.70;;
18789;SDS011;9523;42.650;23.386;2023-05-18T07:36:53;13.43;;;8.03;;
18789;SDS011;9523;42.650;23.386;2023-05-18T07:39:24;11.10;;;8.83;;
18789;SDS011;9523;42.650;23.386;2023-05-18T07:41:57;13.40;;;9.50;;
18789;SDS011;9523;42.650;23.386;2023-05-18T07:44:30;14.90;;;9.27;;
18789;SDS011;9523;42.650;23.386;2023-05-18T07:47:01;16.40;;;9.83;;
18789;SDS011;9523;42.650;23.386;2023-05-18T07:49:28;13.97;;;9.73;;
18789;SDS011;9523;42.650;23.386;2023-05-18T07:51:57;17.70;;;10.87;;
18789;SDS011;9523;42.650;23.386;2023-05-18T07:54:27;12.87;;;9.87;;
18789;SDS011;9523;42.650;23.386;2023-05-18T07:56:56;12.53;;;10.10;;
18789;SDS011;9523;42.650;23.386;2023-05-18T07:59:25;15.17;;;9.67;;
18789;SDS011;9523;42.650;23.386;2023-05-18T08:01:52;15.20;;;10.40;;
18789;SDS011;9523;42.650;23.386;2023-05-18T08:04:19;18.57;;;10.13;;
18789;SDS011;9523;42.650;23.386;2023-05-18T08:06:45;15.67;;;10.60;;
18789;SDS011;9523;42.650;23.386;2023-05-18T08:09:16;17.70;;;10.67;;
18789;SDS011;9523;42.650;23.386;2023-05-18T08:11:43;16.00;;;10.63;;
18789;SDS011;9523;42.650;23.386;2023-05-18T08:14:10;17.03;;;10.57;;
18789;SDS011;9523;42.650;23.386;2023-05-18T08:16:38;15.60;;;11.23;;
18789;SDS011;9523;42.650;23.386;2023-05-18T08:19:05;15.67;;;10.50;;
18789;SDS011;9523;42.650;23.386;2023-05-18T08:21:32;13.80;;;10.50;;
18789;SDS011;9523;42.650;23.386;2023-05-18T08:23:58;15.53;;;11.07;;
18789;SDS011;9523;42.650;23.386;2023-05-18T08:26:25;18.13;;;11.23;;
18789;SDS011;9523;42.650;23.386;2023-05-18T08:28:55;14.33;;;10.13;;
18789;SDS011;9523;42.650;23.386;2023-05-18T08:31:26;14.83;;;10.00;;
18789;SDS011;9523;42.650;23.386;2023-05-18T08:33:54;13.63;;;10.33;;
18789;SDS011;9523;42.650;23.386;2023-05-18T08:36:22;12.27;;;9.10;;
18789;SDS011;9523;42.650;23.386;2023-05-18T08:38:49;12.70;;;9.83;;
18789;SDS011;9523;42.650;23.386;2023-05-18T08:41:18;15.20;;;10.13;;
18789;SDS011;9523;42.650;23.386;2023-05-18T08:43:52;13.10;;;9.50;;
18789;SDS011;9523;42.650;23.386;2023-05-18T08:46:25;13.23;;;9.40;;
18789;SDS011;9523;42.650;23.386;2023-05-18T08:48:59;13.43;;;8.80;;
18789;SDS011;9523;42.650;23.386;2023-05-18T08:51:28;14.90;;;9.40;;
18789;SDS011;9523;42.650;23.386;2023-05-18T08:54:00;14.60;;;9.10;;
18789;SDS011;9523;42.650;23.386;2023-05-18T08:56:30;15.43;;;9.47;;
18789;SDS011;9523;42.650;23.386;2023-05-18T08:58:58;13.87;;;9.17;;
18789;SDS011;9523;42.650;23.386;2023-05-18T09:01:28;13.23;;;8.70;;
18789;SDS011;9523;42.650;23.386;2023-05-18T09:03:56;14.13;;;8.90;;
18789;SDS011;9523;42.650;23.386;2023-05-18T09:06:25;11.87;;;8.57;;
18789;SDS011;9523;42.650;23.386;2023-05-18T09:08:53;12.23;;;9.17;;
18789;SDS011;9523;42.650;23.386;2023-05-18T09:11:21;13.20;;;8.43;;
18789;SDS011;9523;42.650;23.386;2023-05-18T09:13:51;12.97;;;8.63;;
18789;SDS011;9523;42.650;23.386;2023-05-18T09:16:19;11.50;;;8.23;;
18789;SDS011;9523;42.650;23.386;2023-05-18T09:18:46;13.43;;;8.40;;
18789;SDS011;9523;42.650;23.386;2023-05-18T09:21:16;11.10;;;7.87;;
18789;SDS011;9523;42.650;23.386;2023-05-18T09:23:44;15.07;;;8.77;;
18789;SDS011;9523;42.650;23.386;2023-05-18T09:26:11;12.27;;;8.33;;
18789;SDS011;9523;42.650;23.386;2023-05-18T09:28:41;11.57;;;8.33;;
18789;SDS011;9523;42.650;23.386;2023-05-18T09:31:11;9.83;;;7.73;;
18789;SDS011;9523;42.650;23.386;2023-05-18T09:33:46;9.10;;;7.50;;
18789;SDS011;9523;42.650;23.386;2023-05-18T09:36:15;12.93;;;8.27;;
18789;SDS011;9523;42.650;23.386;2023-05-18T09:38:50;15.80;;;9.13;;
18789;SDS011;9523;42.650;23.386;2023-05-18T09:41:17;13.30;;;8.83;;
18789;SDS011;9523;42.650;23.386;2023-05-18T09:43:46;10.70;;;8.27;;
18789;SDS011;9523;42.650;23.386;2023-05-18T09:46:14;11.40;;;8.03;;
18789;SDS011;9523;42.650;23.386;2023-05-18T09:48:49;12.80;;;8.30;;
18789;SDS011;9523;42.650;23.386;2023-05-18T09:51:17;9.87;;;7.23;;
18789;SDS011;9523;42.650;23.386;2023-05-18T09:53:53;9.60;;;7.73;;
18789;SDS011;9523;42.650;23.386;2023-05-18T09:56:24;12.57;;;8.93;;
18789;SDS011;9523;42.650;23.386;2023-05-18T09:58:53;12.67;;;8.77;;
18789;SDS011;9523;42.650;23.386;2023-05-18T10:01:20;14.47;;;10.13;;
18789;SDS011;9523;42.650;23.386;2023-05-18T10:03:47;17.70;;;10.00;;
18789;SDS011;9523;42.650;23.386;2023-05-18T10:06:14;14.90;;;9.67;;
18789;SDS011;9523;42.650;23.386;2023-05-18T10:08:44;11.87;;;8.53;;
18789;SDS011;9523;42.650;23.386;2023-05-18T10:11:14;13.70;;;8.77;;
18789;SDS011;9523;42.650;23.386;2023-05-18T10:13:43;16.27;;;9.40;;
18789;SDS011;9523;42.650;23.386;2023-05-18T10:16:10;13.23;;;8.83;;
18789;SDS011;9523;42.650;23.386;2023-05-18T10:18:38;18.40;;;9.30;;
18789;SDS011;9523;42.650;23.386;2023-05-18T10:21:05;12.03;;;8.60;;
18789;SDS011;9523;42.650;23.386;2023-05-18T10:23:33;11.27;;;7.20;;
18789;SDS011;9523;42.650;23.386;2023-05-18T10:26:03;12.30;;;7.77;;
18789;SDS011;9523;42.650;23.386;2023-05-18T10:28:35;10.70;;;7.87;;
18789;SDS011;9523;42.650;23.386;2023-05-18T10:31:04;11.97;;;7.33;;
18789;SDS011;9523;42.650;23.386;2023-05-18T10:33:34;17.73;;;7.80;;
18789;SDS011;9523;42.650;23.386;2023-05-18T10:36:02;12.90;;;7.63;;
18789;SDS011;9523;42.650;23.386;2023-05-18T10:38:30;13.77;;;8.47;;
18789;SDS011;9523;42.650;23.386;2023-05-18T10:41:01;10.57;;;7.33;;
18789;SDS011;9523;42.650;23.386;2023-05-18T10:43:30;11.53;;;7.93;;
18789;SDS011;9523;42.650;23.386;2023-05-18T10:46:01;10.10;;;7.20;;
18789;SDS011;9523;42.650;23.386;2023-05-18T10:48:31;12.97;;;7.37;;
18789;SDS011;9523;42.650;23.386;2023-05-18T10:51:06;13.13;;;7.37;;
18789;SDS011;9523;42.650;23.386;2023-05-18T10:53:33;9.63;;;7.30;;
18789;SDS011;9523;42.650;23.386;2023-05-18T10:56:01;12.70;;;7.57;;
18789;SDS011;9523;42.650;23.386;2023-05-18T10:58:35;10.87;;;7.13;;
18789;SDS011;9523;42.650;23.386;2023-05-18T11:01:04;10.37;;;7.13;;
18789;SDS011;9523;42.650;23.386;2023-05-18T11:03:37;9.27;;;7.47;;
18789;SDS011;9523;42.650;23.386;2023-05-18T11:06:05;9.37;;;7.10;;
18789;SDS011;9523;42.650;23.386;2023-05-18T11:08:40;11.10;;;7.60;;
18789;SDS011;9523;42.650;23.386;2023-05-18T11:11:08;9.23;;;7.63;;
18789;SDS011;9523;42.650;23.386;2023-05-18T11:13:37;11.20;;;8.13;;
18789;SDS011;9523;42.650;23.386;2023-05-18T11:16:09;11.53;;;8.43;;
18789;SDS011;9523;42.650;23.386;2023-05-18T11:18:37;10.23;;;7.50;;
18789;SDS011;9523;42.650;23.386;2023-05-18T11:21:18;9.17;;;5.83;;
18789;SDS011;9523;42.650;23.386;2023-05-18T11:26:46;6.33;;;4.70;;
18789;SDS011;9523;42.650;23.386;2023-05-18T11:29:19;7.73;;;4.23;;
18789;SDS011;9523;42.650;23.386;2023-05-18T11:31:48;6.97;;;5.00;;
18789;SDS011;9523;42.650;23.386;2023-05-18T11:34:33;5.70;;;4.63;;
18789;SDS011;9523;42.650;23.386;2023-05-18T11:37:09;5.83;;;4.90;;
18789;SDS011;9523;42.650;23.386;2023-05-18T11:39:38;5.97;;;4.63;;
18789;SDS011;9523;42.650;23.386;2023-05-18T11:42:06;5.40;;;4.60;;
18789;SDS011;9523;42.650;23.386;2023-05-18T11:44:35;6.97;;;4.60;;
18789;SDS011;9523;42.650;23.386;2023-05-18T11:47:04;8.50;;;5.20;;
18789;SDS011;9523;42.650;23.386;2023-05-18T11:49:41;6.17;;;4.93;;
18789;SDS011;9523;42.650;23.386;2023-05-18T11:52:13;7.30;;;4.90;;
18789;SDS011;9523;42.650;23.386;2023-05-18T11:54:43;9.70;;;4.90;;
18789;SDS011;9523;42.650;23.386;2023-05-18T11:57:13;7.43;;;4.87;;
18789;SDS011;9523;42.650;23.386;2023-05-18T11:59:43;5.47;;;4.50;;
18789;SDS011;9523;42.650;23.386;2023-05-18T12:02:11;5.47;;;4.70;;
18789;SDS011;9523;42.650;23.386;2023-05-18T12:04:45;5.67;;;3.87;;
18789;SDS011;9523;42.650;23.386;2023-05-18T12:07:16;8.07;;;3.80;;
18789;SDS011;9523;42.650;23.386;2023-05-18T12:09:45;4.93;;;3.73;;
18789;SDS011;9523;42.650;23.386;2023-05-18T12:12:13;4.87;;;3.10;;
18789;SDS011;9523;42.650;23.386;2023-05-18T12:14:47;4.77;;;3.13;;
18789;SDS011;9523;42.650;23.386;2023-05-18T12:17:19;5.00;;;3.70;;
18789;SDS011;9523;42.650;23.386;2023-05-18T12:19:47;6.03;;;3.60;;
18789;SDS011;9523;42.650;23.386;2023-05-18T12:22:15;6.97;;;4.80;;
18789;SDS011;9523;42.650;23.386;2023-05-18T12:24:43;5.23;;;3.60;;
18789;SDS011;9523;42.650;23.386;2023-05-18T12:27:13;4.90;;;3.30;;
18789;SDS011;9523;42.650;23.386;2023-05-18T12:29:40;3.83;;;3.10;;
18789;SDS011;9523;42.650;23.386;2023-05-18T12:32:11;4.00;;;3.00;;
18789;SDS011;9523;42.650;23.386;2023-05-18T12:34:38;4.50;;;3.40;;
18789;SDS011;9523;42.650;23.386;2023-05-18T12:37:11;4.00;;;3.23;;
18789;SDS011;9523;42.650;23.386;2023-05-18T12:39:41;4.07;;;3.60;;
18789;SDS011;9523;42.650;23.386;2023-05-18T12:42:10;4.93;;;3.17;;
18789;SDS011;9523;42.650;23.386;2023-05-18T12:44:39;3.83;;;3.13;;
18789;SDS011;9523;42.650;23.386;2023-05-18T12:47:08;3.83;;;3.10;;
18789;SDS011;9523;42.650;23.386;2023-05-18T12:49:37;4.97;;;3.67;;
18789;SDS011;9523;42.650;23.386;2023-05-18T12:52:09;4.47;;;3.27;;
18789;SDS011;9523;42.650;23.386;2023-05-18T12:54:47;5.30;;;3.73;;
18789;SDS011;9523;42.650;23.386;2023-05-18T12:57:19;10.03;;;6.47;;
18789;SDS011;9523;42.650;23.386;2023-05-18T12:59:49;12.00;;;6.43;;
18789;SDS011;9523;42.650;23.386;2023-05-18T13:02:26;7.33;;;3.97;;
18789;SDS011;9523;42.650;23.386;2023-05-18T13:05:02;9.23;;;5.87;;
18789;SDS011;9523;42.650;23.386;2023-05-18T13:07:31;10.00;;;5.53;;
18789;SDS011;9523;42.650;23.386;2023-05-18T13:10:03;6.50;;;4.90;;
18789;SDS011;9523;42.650;23.386;2023-05-18T13:12:40;7.00;;;4.87;;
18789;SDS011;9523;42.650;23.386;2023-05-18T13:15:13;7.53;;;4.83;;
18789;SDS011;9523;42.650;23.386;2023-05-18T13:20:24;7.87;;;5.30;;
18789;SDS011;9523;42.650;23.386;2023-05-18T13:22:56;7.87;;;5.20;;
18789;SDS011;9523;42.650;23.386;2023-05-18T13:25:24;7.13;;;4.50;;
18789;SDS011;9523;42.650;23.386;2023-05-18T13:27:51;6.43;;;4.30;;
18789;SDS011;9523;42.650;23.386;2023-05-18T13:30:20;6.90;;;5.30;;
18789;SDS011;9523;42.650;23.386;2023-05-18T13:32:48;5.37;;;4.50;;
18789;SDS011;9523;42.650;23.386;2023-05-18T13:35:17;7.73;;;4.63;;
18789;SDS011;9523;42.650;23.386;2023-05-18T13:37:46;9.60;;;5.40;;
18789;SDS011;9523;42.650;23.386;2023-05-18T13:40:15;7.87;;;4.80;;
18789;SDS011;9523;42.650;23.386;2023-05-18T13:42:43;9.93;;;6.30;;
18789;SDS011;9523;42.650;23.386;2023-05-18T13:45:11;8.13;;;5.10;;
18789;SDS011;9523;42.650;23.386;2023-05-18T13:47:39;9.60;;;6.57;;
18789;SDS011;9523;42.650;23.386;2023-05-18T13:50:06;18.33;;;10.20;;
18789;SDS011;9523;42.650;23.386;2023-05-18T13:52:35;20.17;;;12.73;;
18789;SDS011;9523;42.650;23.386;2023-05-18T13:55:06;9.23;;;6.23;;
18789;SDS011;9523;42.650;23.386;2023-05-18T13:57:33;12.10;;;7.00;;
18789;SDS011;9523;42.650;23.386;2023-05-18T14:00:01;8.43;;;5.30;;
18789;SDS011;9523;42.650;23.386;2023-05-18T14:02:34;9.73;;;4.53;;
18789;SDS011;9523;42.650;23.386;2023-05-18T14:05:01;5.40;;;4.60;;
18789;SDS011;9523;42.650;23.386;2023-05-18T14:07:29;4.83;;;3.97;;
18789;SDS011;9523;42.650;23.386;2023-05-18T14:09:56;7.70;;;4.47;;
18789;SDS011;9523;42.650;23.386;2023-05-18T14:12:24;7.50;;;4.30;;
18789;SDS011;9523;42.650;23.386;2023-05-18T14:14:51;6.07;;;4.43;;
18789;SDS011;9523;42.650;23.386;2023-05-18T14:17:18;5.40;;;4.40;;
18789;SDS011;9523;42.650;23.386;2023-05-18T14:19:49;7.07;;;4.47;;
18789;SDS011;9523;42.650;23.386;2023-05-18T14:22:18;5.90;;;4.37;;
18789;SDS011;9523;42.650;23.386;2023-05-18T14:24:46;7.37;;;5.03;;
18789;SDS011;9523;42.650;23.386;2023-05-18T14:27:13;9.27;;;5.10;;
18789;SDS011;9523;42.650;23.386;2023-05-18T14:29:41;7.13;;;4.73;;
18789;SDS011;9523;42.650;23.386;2023-05-18T14:32:08;7.47;;;5.83;;
18789;SDS011;9523;42.650;23.386;2023-05-18T14:34:35;6.57;;;4.50;;
18789;SDS011;9523;42.650;23.386;2023-05-18T14:37:02;8.37;;;5.03;;
18789;SDS011;9523;42.650;23.386;2023-05-18T14:39:29;5.97;;;5.00;;
18789;SDS011;9523;42.650;23.386;2023-05-18T14:41:56;6.87;;;5.63;;
18789;SDS011;9523;42.650;23.386;2023-05-18T14:44:23;10.33;;;5.20;;
18789;SDS011;9523;42.650;23.386;2023-05-18T14:46:52;6.40;;;4.53;;
18789;SDS011;9523;42.650;23.386;2023-05-18T14:49:19;6.27;;;4.90;;
18789;SDS011;9523;42.650;23.386;2023-05-18T14:51:45;4.47;;;3.87;;
18789;SDS011;9523;42.650;23.386;2023-05-18T14:54:12;5.23;;;3.67;;
18789;SDS011;9523;42.650;23.386;2023-05-18T14:56:39;4.03;;;3.17;;
18789;SDS011;9523;42.650;23.386;2023-05-18T14:59:06;4.07;;;3.43;;
18789;SDS011;9523;42.650;23.386;2023-05-18T15:01:33;6.37;;;5.00;;
18789;SDS011;9523;42.650;23.386;2023-05-18T15:04:02;8.20;;;5.80;;